sensor_id;sensor_type;location;lat;lon;timestamp;pressure;altitude;pressure_sealevel;temperature;humidity
33163;BME280;29282;45.656;11.302;2022-09-23T00:00:12;98955.56;;;20.92;52.99
33163;BME280;29282;45.656;11.302;2022-09-23T00:02:37;98952.81;;;20.92;52.97
33163;BME280;29282;45.656;11.302;2022-09-23T00:05:03;98947.31;;;20.92;52.94
33163;BME280;29282;45.656;11.302;2022-09-23T00:07:29;98947.31;;;20.92;53.16
33163;BME280;29282;45.656;11.302;2022-09-23T00:09:54;98946.50;;;20.91;53.07
33163;BME280;29282;45.656;11.302;2022-09-23T00:12:20;98949.25;;;20.91;53.22
33163;BME280;29282;45.656;11.302;2022-09-23T00:14:46;98948.47;;;20.91;52.96
33163;BME280;29282;45.656;11.302;2022-09-23T00:17:11;98944.91;;;20.90;53.00
33163;BME280;29282;45.656;11.302;2022-09-23T00:19:38;98937.44;;;20.91;53.08
33163;BME280;29282;45.656;11.302;2022-09-23T00:22:04;98936.66;;;20.90;53.22
33163;BME280;29282;45.656;11.302;2022-09-23T00:24:30;98940.19;;;20.91;53.23
33163;BME280;29282;45.656;11.302;2022-09-23T00:26:58;98938.59;;;20.90;53.10
33163;BME280;29282;45.656;11.302;2022-09-23T00:29:23;98940.19;;;20.91;53.08
33163;BME280;29282;45.656;11.302;2022-09-23T00:31:49;98940.19;;;20.91;52.71
33163;BME280;29282;45.656;11.302;2022-09-23T00:34:14;98928.38;;;20.90;53.08
33163;BME280;29282;45.656;11.302;2022-09-23T00:36:41;98926.75;;;20.89;52.96
33163;BME280;29282;45.656;11.302;2022-09-23T00:39:07;98932.25;;;20.89;52.91
33163;BME280;29282;45.656;11.302;2022-09-23T00:41:34;98922.06;;;20.90;53.10
33163;BME280;29282;45.656;11.302;2022-09-23T00:44:00;98927.56;;;20.90;52.87
33163;BME280;29282;45.656;11.302;2022-09-23T00:48:57;98922.88;;;20.90;52.89
33163;BME280;29282;45.656;11.302;2022-09-23T00:51:28;98915.72;;;20.89;53.08
33163;BME280;29282;45.656;11.302;2022-09-23T00:54:00;98912.97;;;20.89;53.01
33163;BME280;29282;45.656;11.302;2022-09-23T00:56:26;98911.06;;;20.90;52.99
33163;BME280;29282;45.656;11.302;2022-09-23T00:58:52;98909.41;;;20.88;52.82
33163;BME280;29282;45.656;11.302;2022-09-23T01:01:18;98914.13;;;20.88;53.10
33163;BME280;29282;45.656;11.302;2022-09-23T01:03:45;98909.41;;;20.88;52.75
33163;BME280;29282;45.656;11.302;2022-09-23T01:06:12;98917.69;;;20.88;52.75
33163;BME280;29282;45.656;11.302;2022-09-23T01:08:39;98905.88;;;20.88;53.03
33163;BME280;29282;45.656;11.302;2022-09-23T01:11:20;98905.88;;;20.88;52.80
33163;BME280;29282;45.656;11.302;2022-09-23T01:13:54;98904.25;;;20.87;52.79
33163;BME280;29282;45.656;11.302;2022-09-23T01:30:41;98889.69;;;20.86;52.85
33163;BME280;29282;45.656;11.302;2022-09-23T01:36:17;98894.38;;;20.86;52.83
33163;BME280;29282;45.656;11.302;2022-09-23T01:44:19;98888.06;;;20.85;52.67
33163;BME280;29282;45.656;11.302;2022-09-23T01:50:03;98888.84;;;20.86;52.91
33163;BME280;29282;45.656;11.302;2022-09-23T01:52:16;98890.00;;;20.85;52.77
33163;BME280;29282;45.656;11.302;2022-09-23T01:54:50;98890.81;;;20.85;52.86
33163;BME280;29282;45.656;11.302;2022-09-23T01:57:46;98890.81;;;20.85;52.71
33163;BME280;29282;45.656;11.302;2022-09-23T02:00:16;98882.53;;;20.85;52.73
33163;BME280;29282;45.656;11.302;2022-09-23T02:05:33;98882.53;;;20.85;52.76
33163;BME280;29282;45.656;11.302;2022-09-23T02:08:13;98876.25;;;20.85;52.94
33163;BME280;29282;45.656;11.302;2022-09-23T02:10:48;98881.75;;;20.85;52.86
33163;BME280;29282;45.656;11.302;2022-09-23T02:13:27;98884.84;;;20.83;52.62
33163;BME280;29282;45.656;11.302;2022-09-23T02:15:58;98879.00;;;20.85;52.83
33163;BME280;29282;45.656;11.302;2022-09-23T02:18:29;98884.50;;;20.85;52.62
33163;BME280;29282;45.656;11.302;2022-09-23T02:20:59;98880.13;;;20.84;52.84
33163;BME280;29282;45.656;11.302;2022-09-23T02:23:32;98885.66;;;20.84;52.58
33163;BME280;29282;45.656;11.302;2022-09-23T02:28:55;98873.03;;;20.83;52.51
33163;BME280;29282;45.656;11.302;2022-09-23T02:36:49;98880.13;;;20.84;52.82
33163;BME280;29282;45.656;11.302;2022-09-23T02:39:17;98876.59;;;20.83;52.56
33163;BME280;29282;45.656;11.302;2022-09-23T02:42:01;98872.19;;;20.82;52.53
33163;BME280;29282;45.656;11.302;2022-09-23T02:44:29;98867.53;;;20.83;52.47
33163;BME280;29282;45.656;11.302;2022-09-23T02:46:57;98870.28;;;20.83;52.75
33163;BME280;29282;45.656;11.302;2022-09-23T02:49:26;98871.41;;;20.82;52.68
33163;BME280;29282;45.656;11.302;2022-09-23T02:51:52;98867.53;;;20.83;52.66
33163;BME280;29282;45.656;11.302;2022-09-23T02:54:21;98870.28;;;20.83;52.73
33163;BME280;29282;45.656;11.302;2022-09-23T02:56:48;98870.59;;;20.81;52.58
33163;BME280;29282;45.656;11.302;2022-09-23T02:59:15;98865.88;;;20.82;52.55
33163;BME280;29282;45.656;11.302;2022-09-23T03:05:09;98869.78;;;20.81;52.55
33163;BME280;29282;45.656;11.302;2022-09-23T03:07:47;98868.66;;;20.82;52.54
33163;BME280;29282;45.656;11.302;2022-09-23T03:10:21;98868.66;;;20.82;52.53
33163;BME280;29282;45.656;11.302;2022-09-23T03:15:53;98855.22;;;20.80;52.56
33163;BME280;29282;45.656;11.302;2022-09-23T03:18:31;98857.97;;;20.80;52.40
33163;BME280;29282;45.656;11.302;2022-09-23T03:21:06;98858.78;;;20.81;52.56
33163;BME280;29282;45.656;11.302;2022-09-23T03:23:36;98854.06;;;20.81;52.55
33163;BME280;29282;45.656;11.302;2022-09-23T03:26:09;98857.97;;;20.80;52.49
33163;BME280;29282;45.656;11.302;2022-09-23T03:28:37;98857.63;;;20.82;52.53
33163;BME280;29282;45.656;11.302;2022-09-23T03:31:07;98851.66;;;20.80;52.60
33163;BME280;29282;45.656;11.302;2022-09-23T03:33:33;98852.47;;;20.80;52.38
33163;BME280;29282;45.656;11.302;2022-09-23T03:36:09;98851.31;;;20.81;52.63
33163;BME280;29282;45.656;11.302;2022-09-23T03:39:03;98855.69;;;20.82;52.33
33163;BME280;29282;45.656;11.302;2022-09-23T03:41:37;98854.88;;;20.82;52.48
33163;BME280;29282;45.656;11.302;2022-09-23T03:44:05;98854.88;;;20.82;52.34
33163;BME280;29282;45.656;11.302;2022-09-23T03:46:32;98849.38;;;20.82;52.44
33163;BME280;29282;45.656;11.302;2022-09-23T03:49:07;98843.84;;;20.82;52.46
33163;BME280;29282;45.656;11.302;2022-09-23T03:51:33;98845.00;;;20.81;52.61
33163;BME280;29282;45.656;11.302;2022-09-23T03:53:59;98842.25;;;20.81;52.57
33163;BME280;29282;45.656;11.302;2022-09-23T03:56:25;98851.00;;;20.83;52.67
33163;BME280;29282;45.656;11.302;2022-09-23T03:58:50;98838.34;;;20.82;52.47
33163;BME280;29282;45.656;11.302;2022-09-23T04:01:16;98841.09;;;20.82;52.53
33163;BME280;29282;45.656;11.302;2022-09-23T04:03:41;98834.00;;;20.81;52.74
33163;BME280;29282;45.656;11.302;2022-09-23T04:06:07;98831.25;;;20.81;52.66
33163;BME280;29282;45.656;11.302;2022-09-23T04:08:33;98835.94;;;20.80;52.52
33163;BME280;29282;45.656;11.302;2022-09-23T04:11:00;98832.41;;;20.80;52.72
33163;BME280;29282;45.656;11.302;2022-09-23T04:13:27;98828.50;;;20.81;52.77
33163;BME280;29282;45.656;11.302;2022-09-23T04:15:53;98825.25;;;20.79;52.63
33163;BME280;29282;45.656;11.302;2022-09-23T04:18:19;98830.44;;;20.80;52.72
33163;BME280;29282;45.656;11.302;2022-09-23T04:20:45;98823.31;;;20.79;52.58
33163;BME280;29282;45.656;11.302;2022-09-23T04:23:11;98825.25;;;20.79;52.73
33163;BME280;29282;45.656;11.302;2022-09-23T04:25:43;98823.31;;;20.79;52.56
33163;BME280;29282;45.656;11.302;2022-09-23T04:28:09;98828.81;;;20.79;52.66
33163;BME280;29282;45.656;11.302;2022-09-23T04:30:38;98821.38;;;20.80;52.57
33163;BME280;29282;45.656;11.302;2022-09-23T04:33:05;98821.69;;;20.78;52.22
33163;BME280;29282;45.656;11.302;2022-09-23T04:35:31;98821.69;;;20.78;52.68
33163;BME280;29282;45.656;11.302;2022-09-23T04:37:57;98818.16;;;20.78;52.61
33163;BME280;29282;45.656;11.302;2022-09-23T04:40:22;98820.91;;;20.78;52.37
33163;BME280;29282;45.656;11.302;2022-09-23T04:42:48;98814.59;;;20.77;52.50
33163;BME280;29282;45.656;11.302;2022-09-23T04:45:14;98815.38;;;20.78;52.43
33163;BME280;29282;45.656;11.302;2022-09-23T04:47:40;98815.38;;;20.78;52.69
33163;BME280;29282;45.656;11.302;2022-09-23T04:50:06;98817.34;;;20.77;52.49
33163;BME280;29282;45.656;11.302;2022-09-23T04:52:31;98817.66;;;20.76;52.49
33163;BME280;29282;45.656;11.302;2022-09-23T04:54:57;98818.50;;;20.76;52.52
33163;BME280;29282;45.656;11.302;2022-09-23T04:57:22;98823.16;;;20.76;52.36
33163;BME280;29282;45.656;11.302;2022-09-23T04:59:49;98817.66;;;20.76;52.38
33163;BME280;29282;45.656;11.302;2022-09-23T05:02:15;98816.88;;;20.75;52.57
33163;BME280;29282;45.656;11.302;2022-09-23T05:04:40;98822.06;;;20.77;52.43
33163;BME280;29282;45.656;11.302;2022-09-23T05:07:06;98824.00;;;20.76;52.40
33163;BME280;29282;45.656;11.302;2022-09-23T05:09:32;98824.00;;;20.76;52.38
33163;BME280;29282;45.656;11.302;2022-09-23T05:11:57;98821.56;;;20.75;52.45
33163;BME280;29282;45.656;11.302;2022-09-23T05:14:23;98823.16;;;20.76;52.55
33163;BME280;29282;45.656;11.302;2022-09-23T05:16:48;98822.38;;;20.75;52.24
33163;BME280;29282;45.656;11.302;2022-09-23T05:19:14;98827.06;;;20.75;52.31
33163;BME280;29282;45.656;11.302;2022-09-23T05:21:39;98821.56;;;20.75;52.25
33163;BME280;29282;45.656;11.302;2022-09-23T05:24:05;98829.03;;;20.74;52.29
33163;BME280;29282;45.656;11.302;2022-09-23T05:26:31;98828.22;;;20.74;52.53
33163;BME280;29282;45.656;11.302;2022-09-23T05:28:58;98829.03;;;20.74;52.42
33163;BME280;29282;45.656;11.302;2022-09-23T05:31:26;98825.47;;;20.74;52.26
33163;BME280;29282;45.656;11.302;2022-09-23T05:33:57;98829.03;;;20.74;52.29
33163;BME280;29282;45.656;11.302;2022-09-23T05:36:24;98830.97;;;20.74;52.42
33163;BME280;29282;45.656;11.302;2022-09-23T05:38:50;98828.22;;;20.74;52.16
33163;BME280;29282;45.656;11.302;2022-09-23T05:41:18;98830.97;;;20.74;52.41
33163;BME280;29282;45.656;11.302;2022-09-23T05:43:45;98819.16;;;20.73;52.35
33163;BME280;29282;45.656;11.302;2022-09-23T05:46:23;98827.44;;;20.73;52.35
33163;BME280;29282;45.656;11.302;2022-09-23T05:48:49;98818.00;;;20.74;52.19
33163;BME280;29282;45.656;11.302;2022-09-23T05:51:20;98821.09;;;20.73;52.26
33163;BME280;29282;45.656;11.302;2022-09-23T05:53:47;98819.16;;;20.73;52.18
33163;BME280;29282;45.656;11.302;2022-09-23T05:56:18;98818.00;;;20.74;52.19
33163;BME280;29282;45.656;11.302;2022-09-23T05:58:46;98823.53;;;20.74;52.25
33163;BME280;29282;45.656;11.302;2022-09-23T06:01:14;98825.47;;;20.74;52.30
33163;BME280;29282;45.656;11.302;2022-09-23T06:03:44;98827.06;;;20.75;52.19
33163;BME280;29282;45.656;11.302;2022-09-23T06:06:12;98828.22;;;20.74;52.14
33163;BME280;29282;45.656;11.302;2022-09-23T06:08:42;98826.59;;;20.73;51.94
33163;BME280;29282;45.656;11.302;2022-09-23T06:11:09;98827.44;;;20.73;52.03
33163;BME280;29282;45.656;11.302;2022-09-23T06:13:37;98823.84;;;20.73;52.34
33163;BME280;29282;45.656;11.302;2022-09-23T06:16:08;98823.84;;;20.73;52.05
33163;BME280;29282;45.656;11.302;2022-09-23T06:18:34;98828.22;;;20.74;52.31
33163;BME280;29282;45.656;11.302;2022-09-23T06:21:02;98828.22;;;20.74;51.91
33163;BME280;29282;45.656;11.302;2022-09-23T06:23:28;98825.47;;;20.74;52.12
33163;BME280;29282;45.656;11.302;2022-09-23T06:26:08;98817.22;;;20.74;52.31
33163;BME280;29282;45.656;11.302;2022-09-23T06:28:36;98820.78;;;20.74;52.11
33163;BME280;29282;45.656;11.302;2022-09-23T06:31:06;98819.16;;;20.73;52.24
33163;BME280;29282;45.656;11.302;2022-09-23T06:33:33;98819.16;;;20.73;52.17
33163;BME280;29282;45.656;11.302;2022-09-23T06:36:04;98815.59;;;20.73;52.25
33163;BME280;29282;45.656;11.302;2022-09-23T06:38:29;98816.41;;;20.73;52.21
33163;BME280;29282;45.656;11.302;2022-09-23T06:40:57;98808.97;;;20.74;52.11
33163;BME280;29282;45.656;11.302;2022-09-23T06:43:26;98816.88;;;20.75;51.94
33163;BME280;29282;45.656;11.302;2022-09-23T06:45:52;98818.00;;;20.74;52.14
33163;BME280;29282;45.656;11.302;2022-09-23T06:48:18;98811.22;;;20.72;52.08
33163;BME280;29282;45.656;11.302;2022-09-23T06:50:43;98817.41;;;20.69;52.15
33163;BME280;29282;45.656;11.302;2022-09-23T06:53:09;98817.28;;;20.65;52.26
33163;BME280;29282;45.656;11.302;2022-09-23T06:55:34;98821.19;;;20.64;52.46
33163;BME280;29282;45.656;11.302;2022-09-23T06:58:00;98810.84;;;20.61;52.51
33163;BME280;29282;45.656;11.302;2022-09-23T07:00:25;98813.91;;;20.59;52.38
33163;BME280;29282;45.656;11.302;2022-09-23T07:02:51;98816.66;;;20.59;52.60
33163;BME280;29282;45.656;11.302;2022-09-23T07:05:19;98810.34;;;20.59;52.40
33163;BME280;29282;45.656;11.302;2022-09-23T07:07:46;98815.06;;;20.58;52.42
33163;BME280;29282;45.656;11.302;2022-09-23T07:10:12;98815.88;;;20.59;52.58
33163;BME280;29282;45.656;11.302;2022-09-23T07:12:38;98817.81;;;20.58;52.46
33163;BME280;29282;45.656;11.302;2022-09-23T07:15:03;98817.81;;;20.58;52.41
33163;BME280;29282;45.656;11.302;2022-09-23T07:17:29;98823.31;;;20.58;52.45
33163;BME280;29282;45.656;11.302;2022-09-23T07:19:55;98817.81;;;20.58;52.46
33163;BME280;29282;45.656;11.302;2022-09-23T07:22:24;98811.03;;;20.56;52.68
33163;BME280;29282;45.656;11.302;2022-09-23T07:24:51;98807.47;;;20.55;52.56
33163;BME280;29282;45.656;11.302;2022-09-23T07:27:21;98814.63;;;20.56;52.47
33163;BME280;29282;45.656;11.302;2022-09-23T07:29:48;98814.63;;;20.56;52.64
33163;BME280;29282;45.656;11.302;2022-09-23T07:32:13;98818.47;;;20.55;52.61
33163;BME280;29282;45.656;11.302;2022-09-23T07:34:39;98824.00;;;20.55;52.58
33163;BME280;29282;45.656;11.302;2022-09-23T07:37:04;98816.88;;;20.54;52.53
33163;BME280;29282;45.656;11.302;2022-09-23T07:39:30;98816.88;;;20.54;52.53
33163;BME280;29282;45.656;11.302;2022-09-23T07:41:55;98821.25;;;20.55;52.44
33163;BME280;29282;45.656;11.302;2022-09-23T07:44:21;98818.84;;;20.54;52.42
33163;BME280;29282;45.656;11.302;2022-09-23T07:46:47;98821.59;;;20.54;52.51
33163;BME280;29282;45.656;11.302;2022-09-23T07:49:14;98821.25;;;20.55;52.57
33163;BME280;29282;45.656;11.302;2022-09-23T07:51:41;98822.38;;;20.54;52.50
33163;BME280;29282;45.656;11.302;2022-09-23T07:54:12;98820.44;;;20.55;52.62
33163;BME280;29282;45.656;11.302;2022-09-23T07:56:42;98825.94;;;20.55;52.59
33163;BME280;29282;45.656;11.302;2022-09-23T07:59:10;98814.44;;;20.53;52.58
33163;BME280;29282;45.656;11.302;2022-09-23T08:01:48;98817.19;;;20.53;52.44
33163;BME280;29282;45.656;11.302;2022-09-23T08:04:28;98816.88;;;20.54;52.53
33163;BME280;29282;45.656;11.302;2022-09-23T08:06:57;98823.53;;;20.53;52.59
33163;BME280;29282;45.656;11.302;2022-09-23T08:09:26;98828.22;;;20.53;52.59
33163;BME280;29282;45.656;11.302;2022-09-23T08:11:52;98821.59;;;20.54;52.49
33163;BME280;29282;45.656;11.302;2022-09-23T08:14:19;98828.22;;;20.53;52.43
33163;BME280;29282;45.656;11.302;2022-09-23T08:16:46;98822.72;;;20.53;52.47
33163;BME280;29282;45.656;11.302;2022-09-23T08:19:15;98823.84;;;20.52;52.44
33163;BME280;29282;45.656;11.302;2022-09-23T08:21:41;98816.41;;;20.52;52.45
33163;BME280;29282;45.656;11.302;2022-09-23T08:24:10;98815.28;;;20.53;52.47
33163;BME280;29282;45.656;11.302;2022-09-23T08:26:37;98819.16;;;20.52;52.39
33163;BME280;29282;45.656;11.302;2022-09-23T08:29:03;98818.34;;;20.52;52.57
33163;BME280;29282;45.656;11.302;2022-09-23T08:31:28;98816.75;;;20.51;52.52
33163;BME280;29282;45.656;11.302;2022-09-23T08:33:55;98818.34;;;20.52;52.50
33163;BME280;29282;45.656;11.302;2022-09-23T08:36:24;98816.75;;;20.51;52.62
33163;BME280;29282;45.656;11.302;2022-09-23T08:38:50;98816.75;;;20.51;52.48
33163;BME280;29282;45.656;11.302;2022-09-23T08:41:21;98820.63;;;20.50;52.43
33163;BME280;29282;45.656;11.302;2022-09-23T08:43:51;98807.34;;;20.52;52.47
33163;BME280;29282;45.656;11.302;2022-09-23T08:46:26;98818.34;;;20.52;52.39
33163;BME280;29282;45.656;11.302;2022-09-23T08:48:54;98817.56;;;20.51;52.45
33163;BME280;29282;45.656;11.302;2022-09-23T08:51:38;98817.56;;;20.51;52.49
33163;BME280;29282;45.656;11.302;2022-09-23T08:54:06;98815.91;;;20.50;52.50
33163;BME280;29282;45.656;11.302;2022-09-23T08:56:35;98813.16;;;20.50;52.40
33163;BME280;29282;45.656;11.302;2022-09-23T08:59:08;98810.41;;;20.50;52.39
33163;BME280;29282;45.656;11.302;2022-09-23T09:01:44;98808.50;;;20.51;52.38
33163;BME280;29282;45.656;11.302;2022-09-23T09:04:14;98807.66;;;20.50;52.54
33163;BME280;29282;45.656;11.302;2022-09-23T09:06:44;98810.41;;;20.50;52.50
33163;BME280;29282;45.656;11.302;2022-09-23T09:09:26;98813.16;;;20.50;52.53
33163;BME280;29282;45.656;11.302;2022-09-23T09:12:02;98805.75;;;20.51;52.34
33163;BME280;29282;45.656;11.302;2022-09-23T09:14:34;98804.91;;;20.50;52.36
33163;BME280;29282;45.656;11.302;2022-09-23T09:17:06;98804.91;;;20.50;52.40
33163;BME280;29282;45.656;11.302;2022-09-23T09:22:26;98801.03;;;20.51;52.51
33163;BME280;29282;45.656;11.302;2022-09-23T09:24:57;98795.53;;;20.51;52.24
33163;BME280;29282;45.656;11.302;2022-09-23T09:27:27;98793.56;;;20.52;52.35
33163;BME280;29282;45.656;11.302;2022-09-23T09:29:52;98788.06;;;20.52;52.42
33163;BME280;29282;45.656;11.302;2022-09-23T09:32:42;98787.59;;;20.50;52.50
33163;BME280;29282;45.656;11.302;2022-09-23T09:35:24;98784.84;;;20.50;52.44
33163;BME280;29282;45.656;11.302;2022-09-23T09:37:51;98785.16;;;20.48;52.42
33163;BME280;29282;45.656;11.302;2022-09-23T09:40:17;98791.16;;;20.50;52.33
33163;BME280;29282;45.656;11.302;2022-09-23T09:42:46;98782.09;;;20.50;52.30
33163;BME280;29282;45.656;11.302;2022-09-23T09:45:22;98792.25;;;20.49;52.43
33163;BME280;29282;45.656;11.302;2022-09-23T09:48:09;98792.78;;;20.51;52.37
33163;BME280;29282;45.656;11.302;2022-09-23T09:53:29;98784.84;;;20.50;52.42
33163;BME280;29282;45.656;11.302;2022-09-23T09:56:06;98794.72;;;20.51;52.31
33163;BME280;29282;45.656;11.302;2022-09-23T09:58:58;98791.16;;;20.50;52.42
33163;BME280;29282;45.656;11.302;2022-09-23T10:01:31;98793.91;;;20.50;52.25
33163;BME280;29282;45.656;11.302;2022-09-23T10:04:00;98795.53;;;20.51;52.21
33163;BME280;29282;45.656;11.302;2022-09-23T10:06:28;98790.81;;;20.52;52.07
33163;BME280;29282;45.656;11.302;2022-09-23T10:11:29;98780.63;;;20.52;52.36
33163;BME280;29282;45.656;11.302;2022-09-23T10:14:16;98787.75;;;20.53;52.08
33163;BME280;29282;45.656;11.302;2022-09-23T10:16:43;98777.53;;;20.54;52.17
33163;BME280;29282;45.656;11.302;2022-09-23T10:19:21;98776.41;;;20.55;52.34
33163;BME280;29282;45.656;11.302;2022-09-23T10:21:57;98786.59;;;20.54;52.11
33163;BME280;29282;45.656;11.302;2022-09-23T10:24:33;98773.63;;;20.55;52.22
33163;BME280;29282;45.656;11.302;2022-09-23T10:27:07;98788.22;;;20.55;52.00
33163;BME280;29282;45.656;11.302;2022-09-23T10:29:39;98787.75;;;20.53;52.33
33163;BME280;29282;45.656;11.302;2022-09-23T10:32:34;98785.00;;;20.53;52.35
33163;BME280;29282;45.656;11.302;2022-09-23T10:37:31;98780.28;;;20.54;52.08
33163;BME280;29282;45.656;11.302;2022-09-23T10:39:58;98780.63;;;20.52;52.13
33163;BME280;29282;45.656;11.302;2022-09-23T10:46:04;98774.78;;;20.54;52.11
33163;BME280;29282;45.656;11.302;2022-09-23T10:52:08;98762.31;;;20.56;52.09
33163;BME280;29282;45.656;11.302;2022-09-23T10:55:21;98768.94;;;20.55;51.96
33163;BME280;29282;45.656;11.302;2022-09-23T11:08:57;98759.56;;;20.56;52.21
33163;BME280;29282;45.656;11.302;2022-09-23T11:28:16;98732.47;;;20.58;52.10
33163;BME280;29282;45.656;11.302;2022-09-23T11:31:11;98731.69;;;20.58;52.02
33163;BME280;29282;45.656;11.302;2022-09-23T11:36:58;98719.50;;;20.59;52.04
33163;BME280;29282;45.656;11.302;2022-09-23T11:39:11;98715.97;;;20.58;51.98
33163;BME280;29282;45.656;11.302;2022-09-23T11:41:39;98712.75;;;20.56;51.90
33163;BME280;29282;45.656;11.302;2022-09-23T11:44:10;98715.84;;;20.55;51.91
33163;BME280;29282;45.656;11.302;2022-09-23T11:46:41;98708.38;;;20.55;51.93
33163;BME280;29282;45.656;11.302;2022-09-23T11:49:19;98710.31;;;20.55;52.16
33163;BME280;29282;45.656;11.302;2022-09-23T11:52:01;98702.06;;;20.55;52.12
33163;BME280;29282;45.656;11.302;2022-09-23T11:54:33;98703.66;;;20.56;52.11
33163;BME280;29282;45.656;11.302;2022-09-23T11:57:03;98697.38;;;20.55;52.13
33163;BME280;29282;45.656;11.302;2022-09-23T11:59:51;98693.81;;;20.55;52.19
33163;BME280;29282;45.656;11.302;2022-09-23T12:02:27;98683.94;;;20.54;52.16
33163;BME280;29282;45.656;11.302;2022-09-23T12:05:06;98690.25;;;20.54;52.07
33163;BME280;29282;45.656;11.302;2022-09-23T12:07:45;98683.16;;;20.53;52.15
33163;BME280;29282;45.656;11.302;2022-09-23T12:10:14;98681.19;;;20.54;52.14
33163;BME280;29282;45.656;11.302;2022-09-23T12:15:57;98677.66;;;20.53;51.95
33163;BME280;29282;45.656;11.302;2022-09-23T12:26:38;98681.53;;;20.52;52.02
33163;BME280;29282;45.656;11.302;2022-09-23T12:29:10;98674.06;;;20.53;52.14
33163;BME280;29282;45.656;11.302;2022-09-23T12:31:40;98678.44;;;20.54;52.01
33163;BME280;29282;45.656;11.302;2022-09-23T12:34:28;98666.63;;;20.53;51.94
33163;BME280;29282;45.656;11.302;2022-09-23T12:37:03;98674.06;;;20.53;52.14
33163;BME280;29282;45.656;11.302;2022-09-23T12:39:32;98665.00;;;20.52;52.12
33163;BME280;29282;45.656;11.302;2022-09-23T12:42:02;98668.91;;;20.51;52.17
33163;BME280;29282;45.656;11.302;2022-09-23T12:44:36;98665.00;;;20.52;52.16
33163;BME280;29282;45.656;11.302;2022-09-23T12:49:54;98662.25;;;20.52;51.99
33163;BME280;29282;45.656;11.302;2022-09-23T12:52:24;98668.34;;;20.58;52.18
33163;BME280;29282;45.656;11.302;2022-09-23T12:54:54;98663.22;;;20.56;52.31
33163;BME280;29282;45.656;11.302;2022-09-23T13:02:41;98645.75;;;20.52;52.29
33163;BME280;29282;45.656;11.302;2022-09-23T13:07:57;98643.34;;;20.51;52.23
33163;BME280;29282;45.656;11.302;2022-09-23T13:12:55;98638.63;;;20.51;52.17
33163;BME280;29282;45.656;11.302;2022-09-23T13:15:27;98627.63;;;20.51;52.13
33163;BME280;29282;45.656;11.302;2022-09-23T13:20:48;98626.00;;;20.50;52.31
33163;BME280;29282;45.656;11.302;2022-09-23T13:25:50;98622.91;;;20.52;52.16
33163;BME280;29282;45.656;11.302;2022-09-23T13:28:33;98617.75;;;20.50;52.19
33163;BME280;29282;45.656;11.302;2022-09-23T13:31:05;98622.44;;;20.50;52.10
33163;BME280;29282;45.656;11.302;2022-09-23T13:33:40;98618.06;;;20.49;52.13
33163;BME280;29282;45.656;11.302;2022-09-23T13:36:16;98617.75;;;20.50;52.15
33163;BME280;29282;45.656;11.302;2022-09-23T13:38:42;98607.84;;;20.49;52.20
33163;BME280;29282;45.656;11.302;2022-09-23T13:41:14;98614.19;;;20.50;52.28
33163;BME280;29282;45.656;11.302;2022-09-23T13:43:47;98620.50;;;20.50;52.29
33163;BME280;29282;45.656;11.302;2022-09-23T13:46:25;98610.59;;;20.49;52.25
33163;BME280;29282;45.656;11.302;2022-09-23T13:48:53;98611.44;;;20.50;52.15
33163;BME280;29282;45.656;11.302;2022-09-23T13:51:23;98616.09;;;20.49;52.07
33163;BME280;29282;45.656;11.302;2022-09-23T13:53:55;98610.59;;;20.49;52.13
33163;BME280;29282;45.656;11.302;2022-09-23T13:56:22;98612.56;;;20.49;52.04
33163;BME280;29282;45.656;11.302;2022-09-23T13:58:49;98605.09;;;20.49;52.11
33163;BME280;29282;45.656;11.302;2022-09-23T14:01:22;98602.34;;;20.49;52.14
33163;BME280;29282;45.656;11.302;2022-09-23T14:03:48;98608.69;;;20.50;52.12
33163;BME280;29282;45.656;11.302;2022-09-23T14:06:15;98605.94;;;20.50;52.04
33163;BME280;29282;45.656;11.302;2022-09-23T14:08:44;98601.53;;;20.49;52.16
33163;BME280;29282;45.656;11.302;2022-09-23T14:11:19;98598.00;;;20.48;52.22
33163;BME280;29282;45.656;11.302;2022-09-23T14:13:48;98594.44;;;20.48;52.00
33163;BME280;29282;45.656;11.302;2022-09-23T14:16:15;98591.69;;;20.48;52.13
33163;BME280;29282;45.656;11.302;2022-09-23T14:18:50;98596.41;;;20.47;52.32
33163;BME280;29282;45.656;11.302;2022-09-23T14:21:29;98592.50;;;20.48;52.20
33163;BME280;29282;45.656;11.302;2022-09-23T14:26:44;98591.69;;;20.48;51.99
33163;BME280;29282;45.656;11.302;2022-09-23T14:29:19;98588.59;;;20.49;51.97
33163;BME280;29282;45.656;11.302;2022-09-23T14:31:59;98579.88;;;20.47;52.31
33163;BME280;29282;45.656;11.302;2022-09-23T14:42:40;98578.25;;;20.46;52.19
33163;BME280;29282;45.656;11.302;2022-09-23T14:45:12;98576.66;;;20.45;52.14
33163;BME280;29282;45.656;11.302;2022-09-23T14:47:44;98581.84;;;20.47;52.27
33163;BME280;29282;45.656;11.302;2022-09-23T14:50:20;98576.66;;;20.45;52.24
33163;BME280;29282;45.656;11.302;2022-09-23T14:53:02;98579.09;;;20.47;52.16
33163;BME280;29282;45.656;11.302;2022-09-23T14:55:28;98582.16;;;20.45;52.20
33163;BME280;29282;45.656;11.302;2022-09-23T14:58:03;98589.25;;;20.46;52.07
33163;BME280;29282;45.656;11.302;2022-09-23T15:00:30;98585.38;;;20.47;52.09
33163;BME280;29282;45.656;11.302;2022-09-23T15:02:58;98579.41;;;20.45;52.00
33163;BME280;29282;45.656;11.302;2022-09-23T15:05:53;98581.38;;;20.45;52.22
33163;BME280;29282;45.656;11.302;2022-09-23T15:08:23;98587.66;;;20.45;52.12
33163;BME280;29282;45.656;11.302;2022-09-23T15:10:50;98589.25;;;20.46;52.18
33163;BME280;29282;45.656;11.302;2022-09-23T15:13:21;98590.41;;;20.45;52.21
33163;BME280;29282;45.656;11.302;2022-09-23T15:15:51;98582.16;;;20.45;52.26
33163;BME280;29282;45.656;11.302;2022-09-23T15:18:26;98590.41;;;20.45;52.21
33163;BME280;29282;45.656;11.302;2022-09-23T15:21:13;98593.97;;;20.46;52.08